Time;durP1;ratioP1;P1;durP2;ratioP2;P2;SDS_P1;SDS_P2;PMS_P1;PMS_P2;Temp;Humidity;BMP_temperature;BMP_pressure;BME280_temperature;BME280_humidity;BME280_pressure;Samples;Min_cycle;Max_cycle;Signal;HPM_P1;HPM_P2
2022/01/06 00:03:05;;;;;;;0.80;0.40;;;11.90;69.20;;;;;;10552397;28;20107;-55
2022/01/06 00:08:06;;;;;;;0.60;0.40;;;12.00;69.20;;;;;;10538865;28;20458;-55
2022/01/06 00:13:14;;;;;;;1.30;0.60;;;12.00;68.90;;;;;;10538803;28;20369;-55
2022/01/06 00:23:06;;;;;;;1.50;0.50;;;12.00;68.90;;;;;;10521554;28;20035;-55
2022/01/06 00:23:39;;;;;;;0.90;0.60;;;12.00;69.00;;;;;;10521613;28;20067;-54
2022/01/06 00:28:39;;;;;;;0.73;0.50;;;12.00;69.10;;;;;;10503702;28;20500;-53
2022/01/06 00:33:40;;;;;;;1.10;0.63;;;11.90;69.10;;;;;;10519517;28;20036;-54
2022/01/06 00:38:41;;;;;;;1.17;0.43;;;11.90;69.10;;;;;;10537997;28;20032;-55
2022/01/06 00:43:41;;;;;;;1.20;0.50;;;11.90;69.10;;;;;;10519432;28;20114;-55
2022/01/06 00:48:42;;;;;;;0.90;0.45;;;12.00;69.00;;;;;;10537410;28;20479;-55
2022/01/06 00:53:43;;;;;;;1.05;0.52;;;11.90;69.00;;;;;;10519111;28;20028;-55
2022/01/06 00:58:44;;;;;;;1.70;0.57;;;11.90;69.10;;;;;;10572104;28;20035;-55
2022/01/06 01:03:44;;;;;;;2.25;0.60;;;11.90;69.10;;;;;;10525982;28;20030;-54
2022/01/06 01:08:45;;;;;;;1.33;0.52;;;11.90;69.20;;;;;;10537280;28;20383;-53
2022/01/06 01:13:56;;;;;;;0.88;0.40;;;11.90;69.10;;;;;;10518312;28;20028;-55
2022/01/06 01:19:00;;;;;;;1.75;0.68;;;12.00;68.90;;;;;;10519321;28;20028;-55
2022/01/06 01:24:01;;;;;;;0.88;0.40;;;12.00;68.70;;;;;;10518475;28;20130;-53
2022/01/06 01:29:03;;;;;;;1.40;0.80;;;12.00;68.80;;;;;;10518360;28;20036;-54
2022/01/06 01:34:09;;;;;;;1.33;0.38;;;12.00;68.90;;;;;;10536087;28;20510;-54
2022/01/06 01:39:10;;;;;;;2.78;0.80;;;11.90;69.00;;;;;;10519042;28;20032;-55
2022/01/06 01:44:16;;;;;;;1.38;0.30;;;11.90;68.90;;;;;;10501023;28;20035;-55
2022/01/06 01:54:24;;;;;;;1.23;0.50;;;12.00;68.90;;;;;;10535939;28;20131;-54
2022/01/06 01:59:24;;;;;;;1.48;0.60;;;11.90;68.90;;;;;;10576865;28;20115;-55
2022/01/06 02:04:25;;;;;;;1.52;0.38;;;11.90;68.90;;;;;;10537594;28;20460;-54
2022/01/06 02:09:26;;;;;;;1.02;0.60;;;12.00;68.80;;;;;;10517404;28;20129;-55
2022/01/06 02:14:26;;;;;;;1.83;1.10;;;12.00;68.80;;;;;;10535297;28;20068;-56
2022/01/06 02:19:28;;;;;;;0.77;0.50;;;11.90;68.80;;;;;;10516992;28;20044;-55
2022/01/06 02:24:28;;;;;;;0.50;0.40;;;11.90;68.90;;;;;;10517112;28;20523;-54
2022/01/06 02:29:29;;;;;;;1.73;0.60;;;12.00;68.70;;;;;;10516870;28;20032;-54
2022/01/06 02:34:30;;;;;;;0.98;0.50;;;12.00;68.70;;;;;;10524042;28;20118;-55
2022/01/06 02:39:30;;;;;;;1.95;0.40;;;11.90;68.80;;;;;;10524407;28;20162;-56
2022/01/06 02:44:31;;;;;;;2.72;0.77;;;11.90;68.90;;;;;;10542195;28;20024;-54
2022/01/06 02:49:32;;;;;;;0.68;0.40;;;11.90;68.80;;;;;;10507162;28;20027;-55
2022/01/06 02:54:33;;;;;;;1.08;0.40;;;12.00;68.70;;;;;;10541916;28;20047;-56
2022/01/06 02:59:34;;;;;;;0.63;0.30;;;11.90;68.70;;;;;;10548663;28;20038;-55
2022/01/06 03:04:35;;;;;;;0.90;0.50;;;11.90;68.90;;;;;;10523768;28;20020;-55
2022/01/06 03:09:40;;;;;;;0.50;0.40;;;11.90;68.90;;;;;;10541243;28;20118;-55
2022/01/06 03:14:41;;;;;;;1.08;0.40;;;12.00;68.70;;;;;;10541166;28;20488;-54
2022/01/06 03:19:42;;;;;;;0.68;0.40;;;11.90;68.70;;;;;;10541233;28;20119;-55
2022/01/06 03:24:43;;;;;;;1.27;0.38;;;11.90;68.80;;;;;;10522613;28;20036;-55
2022/01/06 03:29:43;;;;;;;2.65;0.65;;;11.90;68.90;;;;;;10540409;28;20085;-55
2022/01/06 03:34:45;;;;;;;1.23;0.40;;;11.90;68.70;;;;;;10540302;28;20365;-55
2022/01/06 03:39:46;;;;;;;1.85;0.70;;;11.90;68.80;;;;;;10522180;28;20036;-54
2022/01/06 03:44:49;;;;;;;1.35;0.50;;;11.90;68.70;;;;;;10521476;28;20499;-53
2022/01/06 03:49:49;;;;;;;1.50;0.50;;;12.00;68.30;;;;;;10539737;28;20032;-55
2022/01/06 03:54:51;;;;;;;1.65;0.50;;;12.00;68.20;;;;;;10542329;28;20072;-55
2022/01/06 03:59:52;;;;;;;0.60;0.30;;;11.90;68.20;;;;;;10561165;28;20031;-55
2022/01/06 04:04:52;;;;;;;1.83;0.63;;;11.90;68.40;;;;;;10521040;28;20020;-55
2022/01/06 04:09:53;;;;;;;3.60;1.02;;;12.00;68.30;;;;;;10520812;28;20024;-53
2022/01/06 04:14:54;;;;;;;1.27;0.60;;;12.00;68.20;;;;;;10538724;28;20099;-55
2022/01/06 04:19:54;;;;;;;1.77;0.60;;;12.00;68.20;;;;;;10520403;28;20093;-55
2022/01/06 04:24:55;;;;;;;1.80;0.55;;;12.00;68.00;;;;;;10538182;28;20487;-54
2022/01/06 04:29:56;;;;;;;0.68;0.47;;;12.00;67.90;;;;;;10538159;28;20032;-55
2022/01/06 04:34:58;;;;;;;1.85;0.45;;;12.00;68.00;;;;;;10519903;28;20407;-55
2022/01/06 04:39:59;;;;;;;0.60;0.40;;;12.00;68.10;;;;;;10537675;28;20035;-54
2022/01/06 04:45:00;;;;;;;1.80;0.47;;;11.90;68.20;;;;;;10537698;28;20128;-54
2022/01/06 04:50:00;;;;;;;2.30;0.60;;;11.90;68.40;;;;;;10537377;28;20032;-55
2022/01/06 04:55:01;;;;;;;1.80;0.47;;;11.90;68.40;;;;;;10522266;28;20028;-54
2022/01/06 05:00:05;;;;;;;2.60;0.63;;;11.80;68.50;;;;;;10540603;28;20567;-55
2022/01/06 05:05:06;;;;;;;3.10;0.75;;;11.80;68.60;;;;;;10536673;28;20028;-56
2022/01/06 05:10:08;;;;;;;1.38;0.60;;;11.80;68.50;;;;;;10518522;28;20040;-54
2022/01/06 05:15:12;;;;;;;1.20;0.57;;;11.80;68.50;;;;;;10518994;28;20054;-53
2022/01/06 05:20:12;;;;;;;1.25;0.55;;;11.80;68.40;;;;;;10518699;28;20107;-55
2022/01/06 05:25:13;;;;;;;1.75;0.52;;;11.80;68.30;;;;;;10517938;28;20048;-54
2022/01/06 05:30:14;;;;;;;2.85;0.60;;;11.90;68.20;;;;;;10518140;28;20028;-55
2022/01/06 05:35:15;;;;;;;2.53;0.63;;;11.90;68.20;;;;;;10536195;28;20103;-54
2022/01/06 05:40:15;;;;;;;1.50;0.65;;;11.90;68.00;;;;;;10517970;28;20039;-55
2022/01/06 05:45:17;;;;;;;1.15;0.45;;;12.00;67.90;;;;;;10517652;28;20028;-55
2022/01/06 05:50:18;;;;;;;0.95;0.30;;;11.90;68.00;;;;;;10518065;28;20032;-55
2022/01/06 05:55:19;;;;;;;1.48;0.63;;;11.90;68.20;;;;;;10541923;28;20036;-55
2022/01/06 06:00:19;;;;;;;2.65;0.65;;;11.80;68.20;;;;;;10572058;28;20112;-55
2022/01/06 06:05:20;;;;;;;2.30;0.70;;;11.90;68.10;;;;;;10519870;28;20035;-55
2022/01/06 06:10:21;;;;;;;1.90;0.55;;;11.90;67.90;;;;;;10543636;28;20395;-55
2022/01/06 06:15:22;;;;;;;1.40;0.70;;;11.90;68.00;;;;;;10525787;28;20364;-55
2022/01/06 06:20:22;;;;;;;1.92;1.23;;;12.00;67.80;;;;;;10508414;28;20408;-55
2022/01/06 06:25:24;;;;;;;2.22;0.40;;;12.00;67.60;;;;;;10543288;28;20059;-55
2022/01/06 06:30:25;;;;;;;1.42;0.45;;;12.00;67.50;;;;;;10543155;28;20489;-54
2022/01/06 06:35:25;;;;;;;2.10;0.40;;;11.90;67.60;;;;;;10524787;28;20166;-55
2022/01/06 06:40:26;;;;;;;2.08;0.73;;;11.90;67.80;;;;;;10542573;28;20028;-55
2022/01/06 06:45:27;;;;;;;0.77;0.50;;;11.80;67.90;;;;;;10524112;28;20032;-54
2022/01/06 06:50:28;;;;;;;2.03;1.30;;;11.90;67.80;;;;;;10542355;28;20120;-55
2022/01/06 06:55:30;;;;;;;1.45;0.57;;;11.90;67.70;;;;;;10549652;28;20156;-53
2022/01/06 07:00:31;;;;;;;1.85;0.77;;;11.90;67.90;;;;;;10576493;28;20026;-54
2022/01/06 07:05:32;;;;;;;1.35;0.50;;;11.80;68.00;;;;;;10541742;28;20024;-55
2022/01/06 07:10:32;;;;;;;2.05;0.50;;;11.80;67.80;;;;;;10506629;28;20020;-54
2022/01/06 07:15:36;;;;;;;1.45;0.70;;;11.90;67.60;;;;;;10506024;28;20118;-55
2022/01/06 07:20:37;;;;;;;1.95;0.60;;;12.00;67.40;;;;;;10540636;28;20035;-55
2022/01/06 07:25:38;;;;;;;2.42;0.80;;;12.00;67.20;;;;;;10522541;28;20106;-55
2022/01/06 07:30:39;;;;;;;1.90;0.80;;;11.90;67.30;;;;;;10540324;28;20056;-54
2022/01/06 07:35:39;;;;;;;1.30;0.55;;;11.90;67.50;;;;;;10536972;28;20481;-55
2022/01/06 07:40:40;;;;;;;1.20;0.55;;;11.90;67.50;;;;;;10518381;28;20120;-54
2022/01/06 07:45:41;;;;;;;1.52;0.63;;;11.90;67.40;;;;;;10504802;28;20464;-55
2022/01/06 07:50:43;;;;;;;2.30;0.57;;;11.90;67.30;;;;;;10521467;28;20031;-54
2022/01/06 07:55:43;;;;;;;1.10;0.50;;;11.90;67.50;;;;;;10531102;28;20016;-55
2022/01/06 08:00:44;;;;;;;2.17;0.82;;;11.90;67.50;;;;;;10572042;28;20103;-54
2022/01/06 08:05:45;;;;;;;2.97;0.63;;;11.90;67.30;;;;;;10520714;28;20123;-53
2022/01/06 08:10:45;;;;;;;2.35;0.77;;;11.90;67.30;;;;;;10520848;28;20051;-55
2022/01/06 08:15:46;;;;;;;4.90;0.73;;;11.90;67.40;;;;;;10538513;28;20115;-56
2022/01/06 08:20:47;;;;;;;1.15;0.60;;;11.90;67.20;;;;;;10538342;28;20038;-54
2022/01/06 08:25:48;;;;;;;3.25;1.42;;;11.90;67.10;;;;;;10520055;28;20089;-55
2022/01/06 08:30:49;;;;;;;1.25;0.60;;;11.90;67.10;;;;;;10519993;28;20028;-55
2022/01/06 08:35:49;;;;;;;2.22;0.70;;;11.90;67.30;;;;;;10519853;28;20024;-54
2022/01/06 08:40:50;;;;;;;2.53;0.70;;;11.80;67.30;;;;;;10519517;28;20024;-55
2022/01/06 08:45:51;;;;;;;2.47;0.70;;;11.90;67.20;;;;;;10537589;28;20032;-54
2022/01/06 08:50:53;;;;;;;1.23;0.80;;;11.90;67.20;;;;;;10537451;28;20069;-55
2022/01/06 08:55:54;;;;;;;1.45;0.75;;;11.90;67.30;;;;;;10548709;28;20028;-54
2022/01/06 09:00:54;;;;;;;1.25;0.60;;;11.90;67.30;;;;;;10550596;28;20482;-55
2022/01/06 09:05:55;;;;;;;1.55;0.70;;;11.90;67.30;;;;;;10537192;28;20049;-54
2022/01/06 09:10:56;;;;;;;2.17;0.57;;;11.90;67.30;;;;;;10536616;28;20426;-55
2022/01/06 09:15:57;;;;;;;2.00;0.95;;;11.90;67.40;;;;;;10519077;28;20119;-53
2022/01/06 09:20:57;;;;;;;2.03;0.60;;;11.90;67.50;;;;;;10518630;28;20020;-54
2022/01/06 09:25:58;;;;;;;3.03;0.80;;;11.90;67.50;;;;;;10501321;28;20054;-55
2022/01/06 09:30:59;;;;;;;3.60;0.77;;;11.90;67.60;;;;;;10518495;28;20028;-55
2022/01/06 09:35:59;;;;;;;1.45;0.60;;;11.90;67.60;;;;;;10535799;28;20535;-55
2022/01/06 09:41:05;;;;;;;1.60;0.65;;;11.90;67.70;;;;;;10535514;28;20145;-55
2022/01/06 09:46:08;;;;;;;1.75;0.80;;;11.80;67.80;;;;;;10536433;28;20108;-55
2022/01/06 09:51:10;;;;;;;2.58;1.00;;;11.70;68.60;;;;;;10535809;28;20020;-55
2022/01/06 09:56:11;;;;;;;2.08;0.68;;;11.70;69.00;;;;;;10531444;28;20035;-55
2022/01/06 10:01:12;;;;;;;2.65;0.90;;;11.70;69.40;;;;;;10546421;28;20116;-55
2022/01/06 10:06:16;;;;;;;1.30;0.68;;;11.70;69.40;;;;;;10517531;28;20032;-54
2022/01/06 10:11:22;;;;;;;1.08;0.50;;;11.70;69.50;;;;;;10535359;28;20580;-56
2022/01/06 10:16:24;;;;;;;0.77;0.40;;;11.70;69.50;;;;;;10517446;28;20031;-54
2022/01/06 10:21:29;;;;;;;1.55;0.65;;;11.70;70.00;;;;;;10517438;28;20117;-54
2022/01/06 10:26:31;;;;;;;1.90;0.55;;;11.70;69.40;;;;;;10500239;28;20050;-55
2022/01/06 10:31:32;;;;;;;0.80;0.60;;;11.80;69.40;;;;;;10517001;28;20051;-55
2022/01/06 10:36:35;;;;;;;2.80;0.80;;;11.80;69.40;;;;;;10516750;28;20032;-53
2022/01/06 10:41:38;;;;;;;2.15;0.47;;;11.80;69.50;;;;;;10517461;28;20013;-55
2022/01/06 10:46:44;;;;;;;1.70;1.00;;;11.90;69.60;;;;;;10500547;28;20358;-55
2022/01/06 10:51:48;;;;;;;1.67;0.88;;;11.90;69.60;;;;;;10517783;28;20035;-55
2022/01/06 10:57:01;;;;;;;1.17;0.55;;;11.90;69.50;;;;;;10542712;28;20043;-55
2022/01/06 11:02:04;;;;;;;1.90;0.63;;;11.90;69.50;;;;;;10545969;28;20038;-55
2022/01/06 11:07:05;;;;;;;1.77;0.70;;;12.00;69.40;;;;;;10506819;28;20085;-55
2022/01/06 11:12:26;;;;;;;1.65;0.88;;;12.00;69.40;;;;;;10523217;28;20069;-53
2022/01/06 11:17:27;;;;;;;2.35;0.60;;;12.00;69.40;;;;;;10526279;28;20089;-55
2022/01/06 11:22:28;;;;;;;1.67;0.68;;;12.00;69.50;;;;;;10505961;28;20040;-56
2022/01/06 11:27:35;;;;;;;0.60;0.38;;;12.00;69.30;;;;;;10522757;28;20102;-55
2022/01/06 11:32:36;;;;;;;1.98;0.73;;;12.10;69.30;;;;;;10522579;28;20229;-55
2022/01/06 11:37:43;;;;;;;1.85;0.80;;;12.10;69.30;;;;;;10522804;28;20475;-54
2022/01/06 11:42:54;;;;;;;1.75;0.90;;;12.10;69.20;;;;;;10540142;28;20046;-55
2022/01/06 11:48:16;;;;;;;1.10;0.47;;;12.10;69.10;;;;;;10522337;28;20028;-54
2022/01/06 11:53:18;;;;;;;1.50;0.80;;;12.20;69.10;;;;;;10539792;28;20459;-55
2022/01/06 11:58:23;;;;;;;1.40;0.60;;;12.20;69.10;;;;;;10552587;28;20119;-55
2022/01/06 12:03:42;;;;;;;1.55;0.57;;;12.10;69.20;;;;;;10531319;28;20492;-55
2022/01/06 12:08:43;;;;;;;1.73;0.70;;;12.10;69.20;;;;;;10521570;28;20455;-55
2022/01/06 12:13:46;;;;;;;1.08;0.50;;;12.10;69.20;;;;;;10521256;28;20032;-54
2022/01/06 12:18:46;;;;;;;0.77;0.50;;;12.10;69.20;;;;;;10520613;28;20032;-56
2022/01/06 12:23:48;;;;;;;1.10;0.55;;;12.20;69.10;;;;;;10538329;28;20123;-55
2022/01/06 12:28:49;;;;;;;1.25;0.57;;;12.20;69.10;;;;;;10519989;28;20103;-56
2022/01/06 12:33:51;;;;;;;0.80;0.60;;;12.10;69.10;;;;;;10519776;28;20115;-56
2022/01/06 12:38:51;;;;;;;1.58;0.65;;;12.10;69.30;;;;;;10519843;28;20138;-55
2022/01/06 12:43:55;;;;;;;2.97;0.68;;;12.00;69.40;;;;;;10502879;28;20046;-56
2022/01/06 12:48:56;;;;;;;2.75;1.00;;;12.00;69.70;;;;;;10537288;28;20111;-56
2022/01/06 12:54:09;;;;;;;1.23;0.70;;;11.90;69.70;;;;;;10537195;28;20036;-55
2022/01/06 12:59:24;;;;;;;1.60;0.60;;;11.90;69.90;;;;;;10540664;28;20028;-55
2022/01/06 13:04:29;;;;;;;2.60;0.68;;;11.80;69.80;;;;;;10521444;28;20042;-52
2022/01/06 13:09:33;;;;;;;1.05;0.50;;;11.80;69.90;;;;;;10519179;28;20101;-54
2022/01/06 13:14:45;;;;;;;1.23;0.60;;;11.80;69.90;;;;;;10518214;28;20035;-52
2022/01/06 13:20:14;;;;;;;1.25;0.50;;;11.80;70.00;;;;;;10519701;28;20400;-53
2022/01/06 13:25:43;;;;;;;1.02;0.60;;;11.80;70.00;;;;;;10536296;28;20050;-53
2022/01/06 13:30:49;;;;;;;1.02;0.50;;;11.70;70.00;;;;;;10517852;28;20047;-56
2022/01/06 13:36:04;;;;;;;2.00;0.70;;;11.70;70.00;;;;;;10536020;28;20078;-55
2022/01/06 13:41:09;;;;;;;1.80;0.70;;;11.70;70.00;;;;;;10518272;28;20024;-55
2022/01/06 13:46:23;;;;;;;1.45;0.60;;;11.70;69.90;;;;;;10518126;28;20039;-55
2022/01/06 13:51:28;;;;;;;1.42;0.52;;;11.70;69.90;;;;;;10504327;28;20024;-55
2022/01/06 13:56:31;;;;;;;1.42;0.80;;;11.70;69.80;;;;;;10551601;28;20439;-54
2022/01/06 14:01:32;;;;;;;2.17;0.75;;;11.70;69.80;;;;;;10562028;28;20434;-55
2022/01/06 14:06:33;;;;;;;1.55;0.60;;;11.70;69.90;;;;;;10517380;28;20077;-55
2022/01/06 14:11:34;;;;;;;1.15;0.75;;;11.70;70.00;;;;;;10535736;28;20062;-55
2022/01/06 14:16:35;;;;;;;1.38;0.73;;;11.70;69.90;;;;;;10535820;28;20031;-55
2022/01/06 14:21:36;;;;;;;1.55;0.80;;;11.70;69.90;;;;;;10517389;28;20020;-53
2022/01/06 14:26:37;;;;;;;3.38;0.70;;;11.70;69.90;;;;;;10519693;28;20027;-54
2022/01/06 14:31:37;;;;;;;1.20;0.80;;;11.70;69.90;;;;;;10524830;28;20032;-55
2022/01/06 14:36:38;;;;;;;1.42;0.60;;;11.70;70.00;;;;;;10542817;28;20031;-54
2022/01/06 14:41:41;;;;;;;1.38;0.57;;;11.70;70.00;;;;;;10542479;28;20150;-55
2022/01/06 14:46:43;;;;;;;1.33;0.50;;;11.70;69.90;;;;;;10542947;28;20024;-55
2022/01/06 14:51:44;;;;;;;0.93;0.50;;;11.60;69.90;;;;;;10542176;28;20031;-55
2022/01/06 14:56:45;;;;;;;1.95;0.93;;;11.60;69.90;;;;;;10560297;28;20030;-55
2022/01/06 15:01:45;;;;;;;1.30;0.50;;;11.60;69.90;;;;;;10548282;28;20035;-55
2022/01/06 15:06:46;;;;;;;1.25;0.52;;;11.60;69.90;;;;;;10523564;28;20028;-55
2022/01/06 15:11:47;;;;;;;0.80;0.47;;;11.60;69.90;;;;;;10506555;28;20032;-54
2022/01/06 15:16:48;;;;;;;2.40;0.73;;;11.60;69.70;;;;;;10541173;28;20111;-55
2022/01/06 15:21:49;;;;;;;1.25;0.52;;;11.60;69.60;;;;;;10541260;28;20028;-54
2022/01/06 15:26:50;;;;;;;1.88;0.60;;;11.60;69.50;;;;;;10540776;28;20028;-53
2022/01/06 15:31:50;;;;;;;0.95;0.50;;;11.60;69.30;;;;;;10522397;28;20036;-52
2022/01/06 15:36:51;;;;;;;1.23;0.50;;;11.60;69.50;;;;;;10504510;28;20043;-53
2022/01/06 15:41:52;;;;;;;1.15;0.30;;;11.60;69.60;;;;;;10521983;28;20099;-53
2022/01/06 15:46:53;;;;;;;1.45;0.88;;;11.60;69.30;;;;;;10540068;28;20040;-52
2022/01/06 15:51:54;;;;;;;0.60;0.30;;;11.70;69.00;;;;;;10521643;28;20046;-53
2022/01/06 15:56:55;;;;;;;1.63;0.50;;;11.70;69.00;;;;;;10524126;28;20059;-52
2022/01/06 16:07:00;;;;;;;1.30;0.68;;;11.80;69.00;;;;;;10521677;28;20032;-53
2022/01/06 16:12:00;;;;;;;0.93;0.50;;;11.80;68.80;;;;;;10521068;28;20602;-51
2022/01/06 16:17:01;;;;;;;0.70;0.50;;;11.80;68.80;;;;;;10520799;28;20165;-53
2022/01/06 16:22:02;;;;;;;0.60;0.40;;;11.80;68.90;;;;;;10538493;28;20048;-53
2022/01/06 16:27:05;;;;;;;0.75;0.47;;;11.70;68.90;;;;;;10520267;28;20047;-51
2022/01/06 16:32:23;;;;;;;0.80;0.52;;;11.70;69.00;;;;;;10503785;28;20593;-52
2022/01/06 16:37:23;;;;;;;1.45;0.88;;;11.70;69.00;;;;;;10536805;28;20035;-52
2022/01/06 16:42:24;;;;;;;0.93;0.60;;;11.70;69.10;;;;;;10519718;28;20026;-55
2022/01/06 16:47:25;;;;;;;1.90;0.50;;;11.80;68.90;;;;;;10537726;28;20107;-54
2022/01/06 16:52:26;;;;;;;1.60;0.57;;;11.80;68.70;;;;;;10518721;28;20689;-55
2022/01/06 16:57:27;;;;;;;0.82;0.40;;;11.80;68.60;;;;;;10526710;28;20042;-56
2022/01/06 17:02:28;;;;;;;1.80;0.63;;;11.80;68.70;;;;;;10537539;28;20274;-53
2022/01/06 17:07:29;;;;;;;0.73;0.60;;;11.80;68.70;;;;;;10519260;28;20038;-53
2022/01/06 17:12:29;;;;;;;1.38;0.65;;;11.80;68.90;;;;;;10518820;28;20024;-53
2022/01/06 17:17:30;;;;;;;0.80;0.45;;;11.80;68.90;;;;;;10519075;28;20480;-53
2022/01/06 17:22:31;;;;;;;1.90;0.50;;;11.80;68.50;;;;;;10518385;28;20043;-51
2022/01/06 17:27:32;;;;;;;1.33;0.45;;;11.90;68.40;;;;;;10536459;28;20028;-53
2022/01/06 17:32:35;;;;;;;0.90;0.50;;;11.90;68.40;;;;;;10536189;28;20031;-54
2022/01/06 17:37:36;;;;;;;2.05;0.80;;;11.80;68.40;;;;;;10501740;28;20077;-53
2022/01/06 17:42:37;;;;;;;0.77;0.47;;;11.80;68.60;;;;;;10536564;28;20341;-51
2022/01/06 17:47:37;;;;;;;2.17;0.90;;;11.80;68.50;;;;;;10517679;28;20220;-53
2022/01/06 17:52:38;;;;;;;1.33;0.65;;;11.90;68.40;;;;;;10535854;28;20033;-53
2022/01/06 17:57:42;;;;;;;0.98;0.55;;;11.90;68.40;;;;;;10561453;28;20034;-53
2022/01/06 18:02:43;;;;;;;0.90;0.60;;;11.80;68.50;;;;;;10557143;28;20028;-54
2022/01/06 18:13:04;;;;;;;1.90;0.90;;;11.80;68.30;;;;;;10529066;28;20032;-55
2022/01/06 18:18:05;;;;;;;0.95;0.57;;;11.90;68.40;;;;;;10508678;28;20024;-54
2022/01/06 18:23:06;;;;;;;1.20;0.60;;;11.80;68.40;;;;;;10525527;28;20106;-55
2022/01/06 18:28:07;;;;;;;1.58;0.50;;;11.80;68.50;;;;;;10525225;28;20089;-55
2022/01/06 18:33:08;;;;;;;2.13;0.68;;;11.80;68.40;;;;;;10524595;28;20173;-55
2022/01/06 18:38:08;;;;;;;1.85;0.82;;;11.80;68.20;;;;;;10542746;28;20028;-52
2022/01/06 18:43:09;;;;;;;1.00;0.60;;;11.80;68.30;;;;;;10524579;28;20016;-53
2022/01/06 18:48:10;;;;;;;0.90;0.47;;;11.80;68.30;;;;;;10542483;28;20036;-52
2022/01/06 18:53:10;;;;;;;0.82;0.65;;;11.80;68.30;;;;;;10542376;28;20411;-52
2022/01/06 18:58:11;;;;;;;1.85;0.60;;;11.90;68.20;;;;;;10554110;28;20135;-53
2022/01/06 19:03:12;;;;;;;1.60;1.02;;;11.80;68.20;;;;;;10536057;28;20384;-53
2022/01/06 19:08:13;;;;;;;1.48;0.70;;;11.80;68.30;;;;;;10523489;28;20032;-52
2022/01/06 19:13:14;;;;;;;1.30;0.68;;;11.80;68.30;;;;;;10522313;28;20096;-53
2022/01/06 19:18:15;;;;;;;1.42;0.90;;;11.80;68.10;;;;;;10523283;28;20060;-53
2022/01/06 19:23:15;;;;;;;1.15;0.70;;;11.80;68.10;;;;;;10541061;28;20119;-53
2022/01/06 19:28:18;;;;;;;1.85;0.88;;;11.80;68.10;;;;;;10522718;28;20078;-53
2022/01/06 19:33:18;;;;;;;1.25;0.65;;;11.80;68.20;;;;;;10523204;28;20085;-53
2022/01/06 19:38:21;;;;;;;1.33;0.77;;;11.80;68.20;;;;;;10522380;28;20109;-53
2022/01/06 19:43:22;;;;;;;1.65;0.75;;;11.80;68.10;;;;;;10522859;28;20472;-52
2022/01/06 19:48:23;;;;;;;2.30;0.98;;;11.80;68.10;;;;;;10539934;28;20066;-51
2022/01/06 19:53:25;;;;;;;2.45;1.10;;;11.80;68.20;;;;;;10539754;28;20031;-53
2022/01/06 19:58:26;;;;;;;1.90;0.90;;;11.80;68.20;;;;;;10554384;28;20059;-53
2022/01/06 20:03:26;;;;;;;3.22;1.30;;;11.90;68.00;;;;;;10531482;28;20058;-55
2022/01/06 20:08:27;;;;;;;3.35;1.00;;;11.80;67.90;;;;;;10539403;28;20620;-55
2022/01/06 20:13:30;;;;;;;1.75;1.17;;;11.80;68.00;;;;;;10520960;28;20617;-55
2022/01/06 20:18:33;;;;;;;1.90;1.20;;;11.80;68.10;;;;;;10538742;28;20032;-54
2022/01/06 20:23:34;;;;;;;3.28;1.00;;;11.80;68.00;;;;;;10520574;28;20051;-55
2022/01/06 20:28:34;;;;;;;2.20;1.35;;;11.80;68.00;;;;;;10520268;28;20388;-54
2022/01/06 20:33:36;;;;;;;3.95;1.48;;;11.80;68.00;;;;;;10520048;28;20483;-54
2022/01/06 20:38:39;;;;;;;2.15;1.15;;;11.80;68.10;;;;;;10520104;28;20048;-55
2022/01/06 20:43:40;;;;;;;2.65;1.58;;;11.80;68.10;;;;;;10503181;28;20227;-55
2022/01/06 20:54:01;;;;;;;4.50;1.63;;;11.80;68.00;;;;;;10522664;28;20059;-55
2022/01/06 20:59:02;;;;;;;3.50;1.10;;;11.80;68.10;;;;;;10574572;28;20020;-55
2022/01/06 21:04:03;;;;;;;3.15;1.20;;;11.80;68.10;;;;;;10525059;28;20022;-54
2022/01/06 21:09:03;;;;;;;6.30;1.60;;;11.80;67.90;;;;;;10536896;28;20057;-56
2022/01/06 21:14:05;;;;;;;2.20;1.17;;;11.80;67.80;;;;;;10518959;28;20361;-55
2022/01/06 21:19:06;;;;;;;3.40;1.25;;;11.80;67.90;;;;;;10536510;28;20063;-55
2022/01/06 21:24:09;;;;;;;2.55;1.35;;;11.80;68.00;;;;;;10536400;28;20042;-55
2022/01/06 21:29:10;;;;;;;2.75;1.52;;;11.80;67.90;;;;;;10518969;28;20070;-54
2022/01/06 21:34:12;;;;;;;2.40;1.23;;;11.80;67.90;;;;;;10536686;28;20051;-53
2022/01/06 21:39:12;;;;;;;4.88;1.52;;;11.80;67.80;;;;;;10535381;28;20066;-54
2022/01/06 21:44:14;;;;;;;2.67;1.52;;;11.80;68.00;;;;;;10501156;28;20127;-54
2022/01/06 21:49:14;;;;;;;3.45;1.40;;;11.80;68.00;;;;;;10517990;28;20036;-55
2022/01/06 21:54:15;;;;;;;2.10;1.13;;;11.80;67.80;;;;;;10535842;28;20455;-55
2022/01/06 21:59:16;;;;;;;3.20;1.50;;;11.90;67.60;;;;;;10557218;28;20035;-54
2022/01/06 22:04:17;;;;;;;2.45;1.40;;;11.90;67.50;;;;;;10539282;28;20027;-53
2022/01/06 22:09:18;;;;;;;2.67;1.42;;;11.90;67.60;;;;;;10535518;28;20028;-54
2022/01/06 22:14:19;;;;;;;2.33;1.23;;;11.90;67.70;;;;;;10517610;28;20112;-55
2022/01/06 22:19:20;;;;;;;2.90;1.70;;;11.80;67.60;;;;;;10517061;28;20127;-55
2022/01/06 22:24:20;;;;;;;3.05;1.48;;;11.90;67.60;;;;;;10535055;28;20198;-53
2022/01/06 22:29:21;;;;;;;3.42;1.90;;;11.90;67.60;;;;;;10517206;28;20395;-53
2022/01/06 22:34:22;;;;;;;2.03;1.35;;;11.90;68.10;;;;;;10517086;28;20039;-52
2022/01/06 22:39:24;;;;;;;3.33;1.00;;;11.90;67.40;;;;;;10534746;28;20035;-53
2022/01/06 22:44:26;;;;;;;4.18;1.58;;;11.90;68.00;;;;;;10534855;28;20150;-52
2022/01/06 22:49:27;;;;;;;3.85;1.80;;;11.90;67.40;;;;;;10505909;28;20092;-52
2022/01/06 22:54:30;;;;;;;3.45;1.75;;;11.80;67.50;;;;;;10524227;28;20032;-53
2022/01/06 22:59:32;;;;;;;2.67;1.40;;;11.80;67.60;;;;;;10565301;28;20028;-51
2022/01/06 23:04:33;;;;;;;2.72;1.60;;;11.80;67.60;;;;;;10543223;28;20043;-53
2022/01/06 23:09:36;;;;;;;2.10;1.50;;;11.80;67.60;;;;;;10541739;28;20418;-52
2022/01/06 23:14:37;;;;;;;4.07;1.50;;;11.80;67.50;;;;;;10523473;28;20122;-53
2022/01/06 23:19:38;;;;;;;2.50;1.40;;;11.80;67.60;;;;;;10523136;28;20017;-53
2022/01/06 23:24:39;;;;;;;3.65;1.77;;;11.80;67.60;;;;;;10506015;28;20048;-52
2022/01/06 23:29:42;;;;;;;2.65;1.50;;;11.80;67.80;;;;;;10540884;28;20027;-52
2022/01/06 23:34:43;;;;;;;2.97;1.60;;;11.80;67.70;;;;;;10523082;28;20024;-52
2022/01/06 23:39:43;;;;;;;3.85;1.42;;;11.80;67.40;;;;;;10522319;28;20392;-53
2022/01/06 23:44:44;;;;;;;2.67;1.30;;;11.90;67.40;;;;;;10522151;28;20081;-53
2022/01/06 23:49:45;;;;;;;3.63;1.33;;;11.80;67.40;;;;;;10521914;28;20016;-53
2022/01/06 23:54:45;;;;;;;4.35;1.85;;;11.80;67.30;;;;;;10523636;28;20028;-53
2022/01/06 23:59:46;;;;;;;2.45;1.33;;;11.80;67.30;;;;;;10562138;28;20114;-53
